KPNS/PNS METAR and TAF weather

Enter ICAO airport designator
Station Type Date Time Source
KPNS METAR 2020/08/12 17:53 UTC NOAA

KPNS 121753Z 09005KT 10SM CLR RMK AO2 SLPNO $


Station Type Date Time Source
KPNS Decoded METAR 2020/08/12 17:53 UTC NOAA

PENSACOLA REGIONAL AIRPORT, FL, United States (KPNS) 30-29N 087-11W 38M
Aug 12, 2020 - 01:53 PM EDT / 2020.08.12 1753 UTC
Wind: from the E (090 degrees) at 6 MPH (5 KT):0
Visibility: 10 mile(s):0
Sky conditions: clear
ob: KPNS 121753Z 09005KT 10SM CLR RMK AO2 SLPNO
cycle: 18

Station Type Date Time Source
KPNS TAF 2020/08/12 18:36 UTC NOAA

TAF KPNS 121734Z 1218/1318 VRB04KT P6SM SCT250
FM122000 20010KT P6SM VCTS SCT050CB SCT250
FM122300 24005KT P6SM SCT100
FM131500 19006KT P6SM SCT035

Example: see airport list